Latest Weather Observations for Gladstone

IDQ60801

Issued at 11:35 pm EST Thursday 21 August 2014 (issued every 30 minutes, with the page automatically refreshed every 10 minutes)

About weather observations | Map of weather stations | Latest weather observations for QLD | Other Formats
Station Details ID: 039123 Name: GLADSTONE RADAR Lat: -23.86 Lon: 151.26 Height: 74.5 m
Data from the previous 72 hours. | See also: Recent months at Gladstone
Date/Time
EST
Temp
°C
App
Temp
°C
Dew
Point
Rel
Hum
%
Delta-T
°C
Wind Press
QNH
hPa
Press
MSL
hPa
Rain
since 9 am
mm
Dir
 
Spd
km/h
Gust
km/h
Spd
kts
Gust
kts
21/11:30pm 15.3 14.4 14.8 97 0.3 S 13 20 7 11 1021.7 1021.5 3.8
21/11:00pm 15.3 14.4 14.8 97 0.3 SSW 13 20 7 11 1021.8 1021.6 3.8
21/10:30pm 15.5 15.0 15.0 97 0.3 S 11 17 6 9 1021.8 1021.6 3.6
21/10:00pm 15.5 15.1 15.2 98 0.2 S 11 17 6 9 1021.7 1021.5 3.6
21/09:30pm 15.7 14.2 15.4 98 0.2 S 17 26 9 14 1021.6 1021.4 3.6
21/09:00pm 15.5 14.4 15.3 99 0.1 S 15 26 8 14 1021.5 1021.3 3.6
21/08:30pm 15.5 14.7 15.2 98 0.2 SSW 13 20 7 11 1021.5 1021.3 3.2
21/08:00pm 15.5 14.7 15.0 97 0.3 SSW 13 19 7 10 1021.4 1021.2 3.2
21/07:30pm 15.5 14.7 15.0 97 0.3 S 13 19 7 10 1020.9 1020.7 3.2
21/07:00pm 15.6 14.7 14.8 95 0.5 S 13 19 7 10 1020.7 1020.5 3.0
21/06:30pm 16.0 15.0 14.5 91 0.9 S 13 20 7 11 1020.2 1020.0 1.8
21/06:00pm 16.1 15.3 15.0 93 0.6 S 13 22 7 12 1019.9 1019.7 1.8
21/05:30pm 16.0 15.2 15.0 94 0.6 SSW 13 17 7 9 1019.6 1019.4 1.8
21/05:00pm 16.1 15.7 15.3 95 0.5 S 11 19 6 10 1019.4 1019.2 1.8
21/04:30pm 16.8 15.5 14.8 88 1.2 S 15 24 8 13 1019.1 1019.0 0.8
21/04:00pm 17.3 16.4 14.8 85 1.4 SSE 13 20 7 11 1018.6 1018.5 0.8
21/03:30pm 19.5 17.4 13.7 69 3.3 SE 17 32 9 17 1018.3 1018.1 0.0
21/03:00pm 20.9 17.4 13.4 62 4.3 ESE 24 35 13 19 1017.9 1017.7 0.0
21/02:30pm 22.3 19.8 13.6 58 5.1 E 19 30 10 16 1018.1 1017.9 0.0
21/02:00pm 22.2 20.0 14.3 61 4.6 ESE 19 30 10 16 1018.3 1018.1 0.0
21/01:30pm 21.5 18.6 12.9 58 4.9 ESE 20 33 11 18 1018.7 1018.6 0.0
21/01:00pm 23.6 21.5 15.1 59 5.1 E 20 32 11 17 1019.0 1018.9 0.0
21/12:30pm 21.4 19.5 14.3 64 4.2 ESE 17 30 9 16 1019.7 1019.5 0.0
21/12:00pm 20.5 17.9 13.7 65 3.9 ESE 20 32 11 17 1020.2 1020.0 0.0
21/11:30am 20.2 17.7 13.6 66 3.8 SE 19 24 10 13 1020.6 1020.4 0.0
21/11:00am 19.7 17.8 14.1 70 3.2 E 17 22 9 12 1020.9 1020.7 0.0
21/10:30am 19.0 17.0 13.8 72 3.0 E 17 24 9 13 1021.3 1021.1 0.0
21/10:00am 18.4 15.8 13.7 74 2.7 SE 20 33 11 18 1021.4 1021.2 0.0
21/09:30am 18.1 15.3 13.2 73 2.8 SE 20 35 11 19 1021.4 1021.2 0.0
21/09:00am 17.9 15.2 13.6 76 2.4 SE 20 39 11 21 1021.2 1021.0 0.0
21/08:30am 17.8 15.4 13.7 77 2.3 SE 19 32 10 17 1020.9 1020.7 0.0
21/08:00am 17.4 14.8 13.7 79 2.1 SE 20 30 11 16 1020.7 1020.5 0.0
21/07:30am 16.8 14.7 13.5 81 1.9 SE 17 26 9 14 1020.5 1020.3 0.0
21/07:00am 16.5 14.3 13.2 81 1.8 SE 17 30 9 16 1020.0 1019.8 0.0
21/06:30am 16.4 14.6 13.3 82 1.7 SSE 15 24 8 13 1019.7 1019.5 0.0
21/06:00am 16.4 14.2 13.3 82 1.7 SSE 17 28 9 15 1019.5 1019.3 0.0
21/05:30am 16.6 14.4 13.3 81 1.9 SSE 17 28 9 15 1019.1 1019.0 0.0
21/05:00am 16.6 15.2 13.3 81 1.9 SSE 13 22 7 12 1019.0 1018.9 0.0
21/04:30am 16.6 15.2 13.5 82 1.7 SSE 13 22 7 12 1018.9 1018.8 0.0
21/04:00am 16.4 15.0 13.5 83 1.6 S 13 20 7 11 1018.8 1018.7 0.0
21/03:30am 16.4 15.0 13.3 82 1.7 S 13 26 7 14 1018.7 1018.6 0.0
21/03:00am 16.6 15.2 13.3 81 1.9 S 13 22 7 12 1019.0 1018.9 0.0
21/02:30am 16.7 14.9 13.2 80 2.0 SSE 15 24 8 13 1019.5 1019.3 0.0
21/02:00am 16.7 14.9 13.4 81 1.9 SSE 15 22 8 12 1019.5 1019.3 0.0
21/01:30am 16.5 14.8 13.6 83 1.6 SSE 15 22 8 12 1019.8 1019.6 0.0
21/01:00am 16.3 15.4 13.8 85 1.4 S 11 17 6 9 1020.0 1019.8 0.0
21/12:30am 16.2 14.8 13.5 84 1.5 S 13 17 7 9 1020.1 1019.9 0.0
21/12:00am 16.6 15.2 13.5 82 1.7 SSE 13 19 7 10 1020.4 1020.2 0.0
 
Date/Time
EST
Temp
°C
App
Temp
°C
Dew
Point
Rel
Hum
%
Delta-T
°C
Wind Press
QNH
hPa
Press
MSL
hPa
Rain
since 9 am
mm
Dir
 
Spd
km/h
Gust
km/h
Spd
kts
Gust
kts
20/11:30pm 16.9 15.5 13.4 80 2.0 SSE 13 19 7 10 1020.5 1020.3 0.0
20/11:00pm 16.6 14.7 13.1 80 2.0 SSE 15 19 8 10 1020.6 1020.4 0.0
20/10:30pm 16.6 15.2 13.3 81 1.9 SSE 13 19 7 10 1020.7 1020.5 0.0
20/10:00pm 17.0 15.9 14.3 84 1.5 SSE 13 15 7 8 1020.7 1020.5 0.0
20/09:30pm 17.3 16.7 14.6 84 1.6 ESE 11 19 6 10 1020.5 1020.3 0.0
20/09:00pm 17.8 15.8 14.9 83 1.7 E 19 24 10 13 1020.4 1020.2 0.0
20/08:30pm 17.8 15.5 14.7 82 1.8 E 20 28 11 15 1020.2 1020.0 0.0
20/08:00pm 17.5 16.1 14.6 83 1.7 E 15 22 8 12 1020.2 1020.0 0.0
20/07:30pm 17.5 15.7 14.4 82 1.8 E 17 22 9 12 1020.1 1019.9 0.0
20/07:00pm 17.3 15.3 14.0 81 1.9 ENE 17 22 9 12 1019.7 1019.5 0.0
20/06:30pm 17.5 15.5 13.8 79 2.1 E 17 22 9 12 1019.2 1019.1 0.0
20/06:00pm 17.5 14.9 13.2 76 2.4 ENE 19 26 10 14 1018.9 1018.8 0.0
20/05:30pm 18.0 15.4 13.3 74 2.7 ENE 19 26 10 14 1018.7 1018.6 0.0
20/05:00pm 18.5 14.9 12.0 66 3.6 ENE 22 30 12 16 1018.3 1018.1 0.0
20/04:30pm 19.4 15.6 11.2 59 4.5 ENE 22 32 12 17 1017.7 1017.5 0.0
20/04:00pm 20.2 16.9 11.7 58 4.7 ENE 20 28 11 15 1017.3 1017.1 0.0
20/03:30pm 21.1 17.7 11.4 54 5.4 ENE 20 30 11 16 1017.4 1017.2 0.0
20/03:00pm 21.3 17.5 11.3 53 5.5 ENE 22 26 12 14 1017.2 1017.0 0.0
20/02:30pm 22.2 19.9 11.6 51 5.9 NE 15 22 8 12 1017.4 1017.2 0.0
20/02:00pm 22.6 19.3 11.0 48 6.4 NE 19 26 10 14 1017.1 1016.9 0.0
20/01:30pm 23.0 19.4 10.4 45 6.9 ENE 20 28 11 15 1017.0 1016.8 0.0
20/01:00pm 23.7 20.4 9.7 41 7.6 NE 17 26 9 14 1017.2 1017.0 0.0
20/12:30pm 23.6 19.7 8.5 38 8.1 NE 19 28 10 15 1017.6 1017.4 0.0
20/12:00pm 23.3 20.2 9.0 40 7.7 ENE 15 26 8 14 1018.1 1017.9 0.0
20/11:30am 22.6 19.7 8.0 39 7.7 E 13 19 7 10 1018.6 1018.5 0.0
20/11:00am 22.1 19.8 7.5 39 7.6 ESE 9 17 5 9 1019.2 1019.1 0.0
20/10:30am 21.8 20.0 8.0 41 7.2 SE 7 17 4 9 1019.5 1019.3 0.0
20/10:00am 19.6 17.4 8.0 47 6.0 SSW 9 20 5 11 1019.7 1019.5 0.0
20/09:30am 18.8 15.7 7.3 47 5.8 SSW 13 22 7 12 1019.9 1019.7 0.0
20/09:00am 17.6 14.5 7.4 51 5.1 S 13 22 7 12 1020.1 1019.9 0.0
20/08:30am 17.0 14.3 7.4 53 4.8 S 11 20 6 11 1020.0 1019.8 0.0
20/08:00am 16.1 13.7 6.8 54 4.6 S 9 15 5 8 1020.1 1019.9 0.0
20/07:30am 15.3 13.2 6.6 56 4.3 SSW 7 11 4 6 1019.9 1019.7 0.0
20/07:00am 15.3 12.4 6.3 55 4.4 SSW 11 15 6 8 1019.7 1019.5 0.0
20/06:30am 15.0 12.0 6.0 55 4.3 SSW 11 15 6 8 1019.5 1019.3 0.0
20/06:00am 15.0 11.6 6.0 55 4.3 S 13 19 7 10 1019.0 1018.9 0.0
20/05:30am 14.9 11.5 5.7 54 4.4 S 13 17 7 9 1018.7 1018.6 0.0
20/05:00am 14.9 11.5 5.7 54 4.4 SSW 13 17 7 9 1018.3 1018.1 0.0
20/04:30am 14.4 11.2 5.0 53 4.4 SSW 11 13 6 7 1018.0 1017.8 0.0
20/04:00am 14.1 10.9 4.9 54 4.3 SW 11 13 6 7 1017.7 1017.5 0.0
20/03:30am 14.4 11.1 4.4 51 4.6 SW 11 13 6 7 1017.5 1017.3 0.0
20/03:00am 15.0 11.6 4.1 48 5.0 SSW 11 17 6 9 1017.4 1017.2 0.0
20/02:30am 15.4 11.7 4.2 47 5.2 SSW 13 19 7 10 1017.3 1017.1 0.0
20/02:00am 15.8 12.0 3.9 45 5.5 SSW 13 20 7 11 1017.4 1017.2 0.0
20/01:30am 16.6 13.2 4.0 43 5.9 SSW 11 19 6 10 1017.6 1017.4 0.0
20/01:00am 16.8 13.1 4.2 43 5.9 SSW 13 19 7 10 1017.7 1017.5 0.0
20/12:30am 17.1 13.3 4.1 42 6.1 SSW 13 19 7 10 1017.8 1017.6 0.0
20/12:00am 17.0 12.8 4.0 42 6.1 SSW 15 22 8 12 1017.9 1017.7 0.0
 
Date/Time
EST
Temp
°C
App
Temp
°C
Dew
Point
Rel
Hum
%
Delta-T
°C
Wind Press
QNH
hPa
Press
MSL
hPa
Rain
since 9 am
mm
Dir
 
Spd
km/h
Gust
km/h
Spd
kts
Gust
kts
19/11:30pm 16.9 12.7 3.9 42 6.1 SSW 15 22 8 12 1018.0 1017.8 0.0
19/11:00pm 16.4 12.6 4.1 44 5.7 SSW 13 17 7 9 1018.3 1018.1 0.0
19/10:30pm 17.4 13.6 4.0 41 6.3 S 13 20 7 11 1018.2 1018.0 0.0
19/10:00pm 17.7 13.1 3.6 39 6.6 S 17 24 9 13 1018.1 1017.9 0.0
19/09:30pm 18.4 14.1 3.5 37 7.0 SSW 15 22 8 12 1017.9 1017.7 0.0
19/09:00pm 17.9 13.6 3.4 38 6.8 S 15 19 8 10 1017.8 1017.6 0.0
19/08:30pm 17.7 14.2 3.6 39 6.6 SSW 11 17 6 9 1017.6 1017.4 0.0
19/08:00pm 17.4 14.2 3.3 39 6.5 SW 9 13 5 7 1017.3 1017.1 0.0
19/07:30pm 17.8 15.0 3.3 38 6.7 SW 7 11 4 6 1016.9 1016.7 0.0
19/07:00pm 18.0 15.3 3.5 38 6.8 SW 7 9 4 5 1016.4 1016.2 0.0
19/06:30pm 18.4 15.7 3.5 37 7.0 WSW 7 11 4 6 1015.9 1015.7 0.0
19/06:00pm 18.8 16.2 3.4 36 7.2 WSW 6 13 3 7 1015.5 1015.3 0.0
19/05:30pm 19.9 17.1 3.2 33 7.9 WSW 7 13 4 7 1015.1 1014.9 0.0
19/05:00pm 20.9 17.0 3.2 31 8.4 SW 13 26 7 14 1014.7 1014.5 0.0
19/04:30pm 22.2 19.0 2.8 28 9.2 SW 9 17 5 9 1014.4 1014.2 0.0
19/04:00pm 23.3 19.7 2.7 26 9.9 SW 11 20 6 11 1014.2 1014.0 0.0
19/03:30pm 23.5 19.4 2.4 25 10.1 SW 13 26 7 14 1013.9 1013.7 0.0
19/03:00pm 23.5 19.8 2.4 25 10.1 SSW 11 22 6 12 1014.0 1013.8 0.0
19/02:30pm 23.4 18.8 1.7 24 10.2 SW 15 24 8 13 1014.2 1014.0 0.0
19/02:00pm 23.3 18.8 2.2 25 10.0 SW 15 30 8 16 1014.4 1014.2 0.0
19/01:30pm 23.2 18.4 2.7 26 9.8 SW 17 33 9 18 1014.6 1014.4 0.0
19/01:00pm 22.9 18.4 2.4 26 9.7 SW 15 24 8 13 1015.0 1014.8 0.0
19/12:30pm 22.3 18.7 2.9 28 9.3 SW 11 19 6 10 1015.7 1015.5 0.0
19/12:00pm 21.2 17.1 2.5 29 8.8 SW 13 32 7 17 1016.4 1016.2 0.0
19/11:30am 21.5 18.4 3.7 31 8.6 SSW 9 17 5 9 1017.0 1016.8 0.0
19/11:00am 20.4 16.6 4.0 34 7.9 WSW 13 28 7 15 1017.6 1017.4 0.0
19/10:30am 19.3 15.6 4.3 37 7.2 SW 13 24 7 13 1018.0 1017.8 0.0
19/10:00am 18.3 15.0 4.5 40 6.6 SW 11 22 6 12 1018.3 1018.1 0.0
19/09:30am 17.1 14.2 6.3 49 5.3 SSW 11 22 6 12 1018.8 1018.7 0.0
19/09:00am 16.0 13.4 5.9 51 4.9 SSW 9 24 5 13 1018.8 1018.7 0.0
19/08:30am 14.7 12.0 5.8 55 4.3 SSW 9 17 5 9 1018.8 1018.7 0.0
19/08:00am 13.7 11.0 5.6 58 3.8 SSW 9 15 5 8 1018.7 1018.6 0.0
19/07:30am 12.6 10.4 5.3 61 3.4 SW 6 13 3 7 1018.5 1018.4 0.0
19/07:00am 12.5 10.0 4.7 59 3.6 SW 7 13 4 7 1018.3 1018.1 0.0
19/06:30am 12.8 9.1 4.5 57 3.8 SSW 13 24 7 13 1017.8 1017.6 0.0
19/06:00am 12.8 8.7 4.5 57 3.8 SSW 15 22 8 12 1017.4 1017.2 0.0
19/05:30am 12.9 9.6 4.8 58 3.7 SW 11 19 6 10 1017.1 1016.9 0.0
19/05:00am 12.8 9.9 4.8 58 3.7 SW 9 17 5 9 1016.9 1016.7 0.0
19/04:30am 13.2 10.3 4.6 56 4.0 SW 9 11 5 6 1016.7 1016.5 0.0
19/04:00am 13.8 10.5 4.7 54 4.2 SW 11 15 6 8 1016.4 1016.2 0.0
19/03:30am 14.6 11.4 4.9 52 4.6 SW 11 15 6 8 1016.3 1016.1 0.0
19/03:00am 15.2 12.3 4.9 50 4.8 SW 9 13 5 7 1015.9 1015.7 0.0
19/02:30am 15.4 12.2 5.0 50 4.9 SW 11 13 6 7 1015.8 1015.6 0.0
19/02:00am 15.2 12.5 5.4 52 4.7 SW 9 13 5 7 1015.7 1015.5 0.0
19/01:30am 15.4 12.6 5.3 51 4.8 SW 9 13 5 7 1015.7 1015.5 0.0
19/01:00am 15.7 12.9 5.3 50 5.0 SW 9 13 5 7 1015.8 1015.6 0.0
19/12:30am 15.9 13.2 5.8 51 4.9 SW 9 15 5 8 1015.7 1015.5 0.0
19/12:00am 16.0 13.0 5.9 51 4.9 SW 11 13 6 7 1015.6 1015.4 0.0

Other Formats:

Comma delimited format used in spreadsheet applications
http://www.bom.gov.au/fwo/IDQ60801/IDQ60801.94380.axf

JavaScript Object Notation format (JSON) in row-major order
http://www.bom.gov.au/fwo/IDQ60801/IDQ60801.94380.json